Time;durP1;ratioP1;P1;durP2;ratioP2;P2;SDS_P1;SDS_P2;PMS_P1;PMS_P2;Temp;Humidity;BMP_temperature;BMP_pressure;BME280_temperature;BME280_humidity;BME280_pressure;Samples;Min_cycle;Max_cycle;Signal;HPM_P1;HPM_P2
2023/12/13 00:02:04;;;;;;;20.43;9.13;;;6.00;99.90;;;;;;4997445;28;20265;-54
2023/12/13 00:04:31;;;;;;;16.77;8.97;;;5.90;99.90;;;;;;4984502;28;20606;-62
2023/12/13 00:06:58;;;;;;;15.20;8.60;;;6.00;99.90;;;;;;4989656;28;20216;-56
2023/12/13 00:09:25;;;;;;;15.67;8.63;;;6.00;99.90;;;;;;4977172;28;20827;-53
2023/12/13 00:11:52;;;;;;;18.37;8.23;;;5.90;99.90;;;;;;4998955;28;20548;-56
2023/12/13 00:14:20;;;;;;;17.67;9.73;;;6.00;99.90;;;;;;4980372;28;20216;-61
2023/12/13 00:16:49;;;;;;;14.17;8.47;;;6.00;99.90;;;;;;4999065;28;20240;-53
2023/12/13 00:19:16;;;;;;;15.57;8.20;;;5.90;99.90;;;;;;5002335;28;20200;-59
2023/12/13 00:21:42;;;;;;;12.27;7.83;;;5.90;99.90;;;;;;4988523;28;20890;-55
2023/12/13 00:24:11;;;;;;;13.33;8.50;;;5.90;99.90;;;;;;4995398;28;20197;-61
2023/12/13 00:26:39;;;;;;;13.73;8.17;;;5.90;99.90;;;;;;4988768;28;20197;-53
2023/12/13 00:29:06;;;;;;;14.70;8.40;;;5.90;99.90;;;;;;4998928;28;20220;-59
2023/12/13 00:31:33;;;;;;;14.40;8.37;;;5.90;99.90;;;;;;4967784;28;20935;-57
2023/12/13 00:34:01;;;;;;;13.37;8.63;;;5.90;99.90;;;;;;4994804;28;20216;-55
2023/12/13 00:36:28;;;;;;;12.57;7.07;;;5.90;99.90;;;;;;4990857;28;20251;-61
2023/12/13 00:38:55;;;;;;;13.10;8.03;;;5.90;99.90;;;;;;5001305;28;20960;-55
2023/12/13 00:41:24;;;;;;;14.23;8.77;;;5.90;99.90;;;;;;4988656;28;20200;-55
2023/12/13 00:43:50;;;;;;;15.27;8.20;;;5.90;99.90;;;;;;4999297;28;20188;-54
2023/12/13 00:46:19;;;;;;;14.60;8.90;;;5.90;99.90;;;;;;4973358;28;20244;-56
2023/12/13 00:48:47;;;;;;;14.07;9.03;;;5.90;99.90;;;;;;4996931;28;20221;-53
2023/12/13 00:51:20;;;;;;;16.00;8.57;;;5.80;99.90;;;;;;4991113;28;20192;-60
2023/12/13 00:53:47;;;;;;;17.33;8.80;;;5.90;99.90;;;;;;4986458;28;20205;-61
2023/12/13 00:56:15;;;;;;;14.83;8.17;;;5.90;99.90;;;;;;4979876;28;20421;-55
2023/12/13 00:58:43;;;;;;;11.93;7.70;;;5.80;99.90;;;;;;4995108;28;20212;-57
2023/12/13 01:01:10;;;;;;;11.97;7.50;;;5.80;99.90;;;;;;4958560;28;20206;-57
2023/12/13 01:03:37;;;;;;;12.00;6.90;;;5.80;99.90;;;;;;4998482;28;21511;-52
2023/12/13 01:06:09;;;;;;;10.40;7.13;;;5.80;99.90;;;;;;4981561;28;20207;-59
2023/12/13 01:08:37;;;;;;;11.03;7.03;;;5.80;99.90;;;;;;4990430;28;20216;-54
2023/12/13 01:11:08;;;;;;;11.63;7.40;;;5.80;99.90;;;;;;4980180;28;20204;-58
2023/12/13 01:13:35;;;;;;;10.90;7.47;;;5.80;99.90;;;;;;4996440;28;20212;-53
2023/12/13 01:16:02;;;;;;;12.83;6.53;;;5.80;99.90;;;;;;4991802;28;20221;-61
2023/12/13 01:18:29;;;;;;;13.13;7.00;;;5.70;99.90;;;;;;4963790;28;20233;-54
2023/12/13 01:20:56;;;;;;;11.93;7.47;;;5.80;99.90;;;;;;4981774;28;20207;-52
2023/12/13 01:23:22;;;;;;;11.77;6.83;;;5.80;99.90;;;;;;4980077;28;20204;-60
2023/12/13 01:25:51;;;;;;;9.33;6.20;;;5.70;99.90;;;;;;4997115;28;20247;-53
2023/12/13 01:28:17;;;;;;;10.17;6.50;;;5.70;99.90;;;;;;4988433;28;20228;-61
2023/12/13 01:30:44;;;;;;;11.20;6.53;;;5.70;99.90;;;;;;4993774;28;20259;-57
2023/12/13 01:33:11;;;;;;;7.27;5.63;;;5.70;99.90;;;;;;4964065;28;20705;-61
2023/12/13 01:35:38;;;;;;;11.03;6.33;;;5.70;99.90;;;;;;4986336;28;20283;-50
2023/12/13 01:38:05;;;;;;;9.63;5.93;;;5.70;99.90;;;;;;4974651;28;20368;-58
2023/12/13 01:40:31;;;;;;;8.07;5.47;;;5.70;99.90;;;;;;4989369;28;20287;-52
2023/12/13 01:43:00;;;;;;;7.90;4.97;;;5.70;99.90;;;;;;4989258;28;20213;-55
2023/12/13 01:45:26;;;;;;;6.80;5.00;;;5.70;99.90;;;;;;4975340;28;20266;-53
2023/12/13 01:47:53;;;;;;;9.83;5.40;;;5.70;99.90;;;;;;4997197;28;20236;-53
2023/12/13 01:50:21;;;;;;;7.30;4.67;;;5.60;99.90;;;;;;4961002;28;20235;-61
2023/12/13 01:52:48;;;;;;;8.70;5.27;;;5.60;99.90;;;;;;4997861;28;20197;-55
2023/12/13 01:55:15;;;;;;;7.80;5.50;;;5.60;99.90;;;;;;4988935;28;20313;-57
2023/12/13 01:57:42;;;;;;;6.57;4.40;;;5.60;99.90;;;;;;4987459;28;20237;-60
2023/12/13 02:00:12;;;;;;;7.27;4.50;;;5.60;99.90;;;;;;4991443;28;20263;-58
2023/12/13 02:02:41;;;;;;;6.67;4.53;;;5.60;99.90;;;;;;4988621;28;20945;-52
2023/12/13 02:05:09;;;;;;;6.43;4.23;;;5.60;99.90;;;;;;4959994;28;20201;-58
2023/12/13 02:07:37;;;;;;;6.90;4.57;;;5.60;99.90;;;;;;4982029;28;20222;-52
2023/12/13 02:10:06;;;;;;;7.13;4.50;;;5.60;99.90;;;;;;4986075;28;20205;-60
2023/12/13 02:12:33;;;;;;;4.43;3.80;;;5.60;99.90;;;;;;4989291;28;20204;-55
2023/12/13 02:15:00;;;;;;;6.00;3.80;;;5.50;99.90;;;;;;4982267;28;20299;-55
2023/12/13 02:17:28;;;;;;;5.53;3.83;;;5.50;99.90;;;;;;4989991;28;20838;-52
2023/12/13 02:19:55;;;;;;;6.20;3.67;;;5.50;99.90;;;;;;4980292;28;20201;-61
2023/12/13 02:22:23;;;;;;;5.67;4.40;;;5.50;99.90;;;;;;4950804;28;20290;-61
2023/12/13 02:24:53;;;;;;;6.23;3.70;;;5.50;99.90;;;;;;4980484;28;20682;-53
2023/12/13 02:27:21;;;;;;;6.90;4.00;;;5.50;99.90;;;;;;4986043;28;20217;-56
2023/12/13 02:29:48;;;;;;;6.50;3.33;;;5.40;99.90;;;;;;4983506;28;20209;-55
2023/12/13 02:32:15;;;;;;;11.63;4.20;;;5.50;99.90;;;;;;4981552;28;20197;-61
2023/12/13 02:34:42;;;;;;;4.40;3.77;;;5.40;99.90;;;;;;4993888;28;20251;-53
2023/12/13 02:37:09;;;;;;;4.73;3.13;;;5.40;99.90;;;;;;4961291;28;20231;-60
2023/12/13 02:39:37;;;;;;;6.20;4.33;;;5.40;99.90;;;;;;4983679;28;20209;-53
2023/12/13 02:42:04;;;;;;;5.37;4.17;;;5.40;99.90;;;;;;4988713;28;20233;-59
2023/12/13 02:44:31;;;;;;;5.10;3.27;;;5.40;99.90;;;;;;4992002;28;20294;-57
2023/12/13 02:46:59;;;;;;;5.03;3.13;;;5.40;99.90;;;;;;4987216;28;20310;-56
2023/12/13 02:49:26;;;;;;;4.03;3.50;;;5.30;99.90;;;;;;4986814;28;21042;-57
2023/12/13 02:51:53;;;;;;;4.17;3.67;;;5.30;99.90;;;;;;4966181;28;20200;-53
2023/12/13 02:54:20;;;;;;;4.17;3.40;;;5.30;99.90;;;;;;4971088;28;20239;-54
2023/12/13 02:56:48;;;;;;;4.40;3.40;;;5.30;99.90;;;;;;4989447;28;20778;-52
2023/12/13 02:59:15;;;;;;;5.23;3.40;;;5.30;99.90;;;;;;4992849;28;20197;-57
2023/12/13 03:01:41;;;;;;;4.13;3.03;;;5.30;99.90;;;;;;4987427;28;20668;-56
2023/12/13 03:04:08;;;;;;;4.10;3.50;;;5.30;99.90;;;;;;4996217;28;20282;-59
2023/12/13 03:06:35;;;;;;;4.17;3.80;;;5.30;99.90;;;;;;4995286;28;20208;-53
2023/12/13 03:09:02;;;;;;;4.20;3.80;;;5.30;99.90;;;;;;4951084;28;20753;-60
2023/12/13 03:11:29;;;;;;;5.20;3.70;;;5.30;99.90;;;;;;4991998;28;20219;-55
2023/12/13 03:13:57;;;;;;;5.37;3.37;;;5.20;99.90;;;;;;4992590;28;20215;-58
2023/12/13 03:16:24;;;;;;;6.17;3.70;;;5.20;99.90;;;;;;4968662;28;20259;-54
2023/12/13 03:18:51;;;;;;;4.40;4.00;;;5.20;99.90;;;;;;4995989;28;20215;-57
2023/12/13 03:21:18;;;;;;;4.57;3.60;;;5.20;99.90;;;;;;4987771;28;20204;-56
2023/12/13 03:23:45;;;;;;;4.30;3.73;;;5.30;99.90;;;;;;4963009;28;20205;-53
2023/12/13 03:26:11;;;;;;;3.87;3.47;;;5.20;99.90;;;;;;4992646;28;20197;-59
2023/12/13 03:28:38;;;;;;;4.87;3.43;;;5.30;99.90;;;;;;4987945;28;20318;-56
2023/12/13 03:31:09;;;;;;;3.70;3.30;;;5.20;99.90;;;;;;4990368;28;20202;-59
2023/12/13 03:33:36;;;;;;;4.70;3.20;;;5.20;99.90;;;;;;4976333;28;20220;-54
2023/12/13 03:36:03;;;;;;;4.83;3.90;;;5.20;99.90;;;;;;4989373;28;20271;-61
2023/12/13 03:38:30;;;;;;;4.07;3.33;;;5.20;99.90;;;;;;4962938;28;20229;-54
2023/12/13 03:40:57;;;;;;;4.67;3.83;;;5.20;99.90;;;;;;4993737;28;20255;-58
2023/12/13 03:43:23;;;;;;;4.47;3.87;;;5.10;99.90;;;;;;4993867;28;20197;-57
2023/12/13 03:45:50;;;;;;;4.33;3.60;;;5.20;99.90;;;;;;4996315;28;20210;-52
2023/12/13 03:48:18;;;;;;;3.80;3.40;;;5.20;99.90;;;;;;4983477;28;20311;-53
2023/12/13 03:50:45;;;;;;;5.47;4.03;;;5.20;99.90;;;;;;4994319;28;20275;-52
2023/12/13 03:53:12;;;;;;;5.97;3.77;;;5.20;99.90;;;;;;4993720;28;20201;-59
2023/12/13 03:55:39;;;;;;;3.53;3.17;;;5.20;99.90;;;;;;4961641;28;21485;-56
2023/12/13 03:58:05;;;;;;;3.97;3.53;;;5.20;99.90;;;;;;4992484;28;20220;-59
2023/12/13 04:00:32;;;;;;;4.60;3.93;;;5.20;99.90;;;;;;4989445;28;20197;-56
2023/12/13 04:02:59;;;;;;;4.00;3.57;;;5.20;99.90;;;;;;4993540;28;20224;-59
2023/12/13 04:05:28;;;;;;;4.03;3.67;;;5.20;99.90;;;;;;4985059;28;20204;-53
2023/12/13 04:07:54;;;;;;;5.03;4.17;;;5.20;99.90;;;;;;4996781;28;20355;-58
2023/12/13 04:10:21;;;;;;;4.20;3.60;;;5.20;99.90;;;;;;4965674;28;20245;-58
2023/12/13 04:12:48;;;;;;;4.80;3.63;;;5.20;99.90;;;;;;4998997;28;20209;-52
2023/12/13 04:15:15;;;;;;;4.23;3.77;;;5.20;99.90;;;;;;4990068;28;20995;-54
2023/12/13 04:17:42;;;;;;;4.47;3.73;;;5.20;99.90;;;;;;4993930;28;20220;-54
2023/12/13 04:20:10;;;;;;;4.50;3.47;;;5.20;99.90;;;;;;4979883;28;20201;-59
2023/12/13 04:22:38;;;;;;;5.37;3.97;;;5.20;99.90;;;;;;4995304;28;20196;-55
2023/12/13 04:25:05;;;;;;;4.97;3.70;;;5.20;99.90;;;;;;4984153;28;20194;-61
2023/12/13 04:27:32;;;;;;;4.97;3.70;;;5.20;99.90;;;;;;4992300;28;20225;-51
2023/12/13 04:29:59;;;;;;;4.10;3.47;;;5.20;99.90;;;;;;4981615;28;20287;-54
2023/12/13 04:32:26;;;;;;;4.13;3.73;;;5.20;99.90;;;;;;4995604;28;20197;-59
2023/12/13 04:34:53;;;;;;;4.60;3.87;;;5.20;99.90;;;;;;4979740;28;20193;-54
2023/12/13 04:37:20;;;;;;;5.87;4.10;;;5.20;99.90;;;;;;4988379;28;20268;-56
2023/12/13 04:39:48;;;;;;;4.40;3.63;;;5.20;99.90;;;;;;4993024;28;20279;-59
2023/12/13 04:42:15;;;;;;;4.77;3.93;;;5.20;99.90;;;;;;4963152;28;20208;-55
2023/12/13 04:44:42;;;;;;;3.73;3.43;;;5.20;99.90;;;;;;4997593;28;20193;-58
2023/12/13 04:47:09;;;;;;;4.47;3.57;;;5.20;99.90;;;;;;4984806;28;20283;-59
2023/12/13 04:49:36;;;;;;;4.47;4.00;;;5.20;99.90;;;;;;4993412;28;20197;-55
2023/12/13 04:52:03;;;;;;;4.10;3.67;;;5.20;99.90;;;;;;4985851;28;20216;-59
2023/12/13 04:54:30;;;;;;;4.67;4.03;;;5.20;99.90;;;;;;5010895;28;20204;-56
2023/12/13 04:56:58;;;;;;;5.00;3.70;;;5.20;99.90;;;;;;4969890;28;20703;-59
2023/12/13 04:59:25;;;;;;;3.97;3.53;;;5.20;99.90;;;;;;4986531;28;20254;-54
2023/12/13 05:01:52;;;;;;;5.30;3.50;;;5.20;99.90;;;;;;4989975;28;20204;-57
2023/12/13 05:04:19;;;;;;;7.00;3.80;;;5.20;99.90;;;;;;4993667;28;20216;-55
2023/12/13 05:06:45;;;;;;;5.30;3.83;;;5.20;99.90;;;;;;4989891;28;20687;-55
2023/12/13 05:09:12;;;;;;;5.67;4.07;;;5.20;99.90;;;;;;4991660;28;20271;-61
2023/12/13 05:11:39;;;;;;;4.63;3.90;;;5.20;99.90;;;;;;4969589;28;20295;-54
2023/12/13 05:14:07;;;;;;;3.90;3.50;;;5.20;99.90;;;;;;4993021;28;20197;-59
2023/12/13 05:16:34;;;;;;;4.57;3.10;;;5.20;99.90;;;;;;4995065;28;20208;-57
2023/12/13 05:19:02;;;;;;;5.97;4.37;;;5.20;99.90;;;;;;4991344;28;20552;-60
2023/12/13 05:21:29;;;;;;;6.87;3.87;;;5.20;99.90;;;;;;4980947;28;20210;-55
2023/12/13 05:23:56;;;;;;;3.67;3.30;;;5.20;99.90;;;;;;4970646;28;20303;-58
2023/12/13 05:26:23;;;;;;;4.43;3.50;;;5.20;99.90;;;;;;4993604;28;20184;-55
2023/12/13 05:28:49;;;;;;;6.27;4.33;;;5.20;99.90;;;;;;4950934;28;20233;-51
2023/12/13 05:31:21;;;;;;;5.57;4.30;;;5.20;99.90;;;;;;4983042;28;20254;-55
2023/12/13 05:33:47;;;;;;;5.93;4.13;;;5.20;99.90;;;;;;4995242;28;20604;-54
2023/12/13 05:36:14;;;;;;;4.27;3.53;;;5.10;99.90;;;;;;4995345;28;20216;-53
2023/12/13 05:38:42;;;;;;;4.57;3.80;;;5.20;99.90;;;;;;4986609;28;20703;-55
2023/12/13 05:41:09;;;;;;;5.00;3.67;;;5.20;99.90;;;;;;4984023;28;20281;-61
2023/12/13 05:43:35;;;;;;;4.37;3.57;;;5.10;99.90;;;;;;4963755;28;20256;-59
2023/12/13 05:46:02;;;;;;;5.90;3.73;;;5.20;99.90;;;;;;4981643;28;20207;-61
2023/12/13 05:48:31;;;;;;;6.47;4.10;;;5.10;99.90;;;;;;4996864;28;20224;-58
2023/12/13 05:50:58;;;;;;;5.00;4.10;;;5.10;99.90;;;;;;4988138;28;20200;-60
2023/12/13 05:53:25;;;;;;;6.90;4.30;;;5.10;99.90;;;;;;4981840;28;20204;-57
2023/12/13 05:55:52;;;;;;;7.93;4.53;;;5.10;99.90;;;;;;4993260;28;20636;-54
2023/12/13 05:58:19;;;;;;;7.37;4.33;;;5.10;99.90;;;;;;4991538;28;21003;-54
2023/12/13 06:00:45;;;;;;;8.07;4.83;;;5.10;99.90;;;;;;4957063;28;20200;-59
2023/12/13 06:03:12;;;;;;;6.50;4.07;;;5.10;99.90;;;;;;4989197;28;20193;-60
2023/12/13 06:05:40;;;;;;;8.13;4.47;;;5.10;99.90;;;;;;4983098;28;20668;-56
2023/12/13 06:08:07;;;;;;;6.20;4.13;;;5.10;99.90;;;;;;4987805;28;20279;-60
2023/12/13 06:10:34;;;;;;;5.37;4.03;;;5.10;99.90;;;;;;4986628;28;20262;-59
2023/12/13 06:13:01;;;;;;;7.67;4.63;;;5.10;99.90;;;;;;4995467;28;20200;-62
2023/12/13 06:15:27;;;;;;;6.67;4.57;;;5.10;99.90;;;;;;4971243;28;20270;-55
2023/12/13 06:17:54;;;;;;;5.43;3.93;;;5.10;99.90;;;;;;4986947;28;20678;-61
2023/12/13 06:20:21;;;;;;;7.30;4.83;;;5.10;99.90;;;;;;4999700;28;20353;-55
2023/12/13 06:22:49;;;;;;;5.73;4.30;;;5.10;99.90;;;;;;4994895;28;20251;-54
2023/12/13 06:25:16;;;;;;;7.70;5.03;;;5.10;99.90;;;;;;4983641;28;20808;-54
2023/12/13 06:27:43;;;;;;;8.67;4.67;;;5.10;99.90;;;;;;4992102;28;20270;-59
2023/12/13 06:30:11;;;;;;;7.63;4.43;;;5.00;99.90;;;;;;4967168;28;20212;-61
2023/12/13 06:32:38;;;;;;;6.23;4.50;;;5.00;99.90;;;;;;4984255;28;20668;-57
2023/12/13 06:35:05;;;;;;;6.53;4.47;;;5.10;99.90;;;;;;4995708;28;20259;-62
2023/12/13 06:37:32;;;;;;;6.50;4.97;;;5.10;99.90;;;;;;4984023;28;21009;-60
2023/12/13 06:40:00;;;;;;;7.70;4.50;;;5.10;99.90;;;;;;4986768;28;20209;-61
2023/12/13 06:42:28;;;;;;;6.43;4.50;;;5.10;99.90;;;;;;4986996;28;20316;-59
2023/12/13 06:44:55;;;;;;;6.63;5.23;;;5.10;99.90;;;;;;4993960;28;20204;-61
2023/12/13 06:47:22;;;;;;;5.93;4.47;;;5.10;99.90;;;;;;4959204;28;20305;-57
2023/12/13 06:49:48;;;;;;;6.90;4.70;;;5.10;99.90;;;;;;4993528;28;20212;-54
2023/12/13 06:52:15;;;;;;;6.53;4.20;;;5.00;99.90;;;;;;4989833;28;20930;-53
2023/12/13 06:54:42;;;;;;;6.37;4.80;;;5.00;99.90;;;;;;4982417;28;20292;-51
2023/12/13 06:57:12;;;;;;;7.60;4.50;;;5.00;99.90;;;;;;4987249;28;20252;-60
2023/12/13 06:59:39;;;;;;;7.80;5.40;;;5.00;99.90;;;;;;4988106;28;20200;-60
2023/12/13 07:02:06;;;;;;;5.63;4.70;;;5.00;99.90;;;;;;4963247;28;20210;-59
2023/12/13 07:04:35;;;;;;;9.43;4.83;;;5.00;99.90;;;;;;4977661;28;20216;-59
2023/12/13 07:07:02;;;;;;;7.07;4.47;;;5.00;99.90;;;;;;4982778;28;20309;-58
2023/12/13 07:09:30;;;;;;;5.93;4.50;;;4.90;99.90;;;;;;4987179;28;20207;-61
2023/12/13 07:11:57;;;;;;;5.10;3.77;;;4.90;99.90;;;;;;4988262;28;20196;-52
2023/12/13 07:14:25;;;;;;;7.00;4.90;;;4.90;99.90;;;;;;4994539;28;20201;-61
2023/12/13 07:16:52;;;;;;;4.60;3.93;;;4.90;99.90;;;;;;4961260;28;20212;-55
2023/12/13 07:19:18;;;;;;;6.63;4.57;;;4.90;99.90;;;;;;4975639;28;20286;-55
2023/12/13 07:21:45;;;;;;;8.90;4.87;;;4.90;99.90;;;;;;4989921;28;20200;-53
2023/12/13 07:24:12;;;;;;;6.50;5.20;;;4.90;99.90;;;;;;4994018;28;20228;-53
2023/12/13 07:26:39;;;;;;;7.20;4.70;;;4.90;99.90;;;;;;4986381;28;20281;-55
2023/12/13 07:29:06;;;;;;;7.50;4.80;;;4.90;99.90;;;;;;4997133;28;20720;-58
2023/12/13 07:31:39;;;;;;;6.30;4.33;;;4.90;99.90;;;;;;4973456;28;20196;-60
2023/12/13 07:34:06;;;;;;;6.80;5.00;;;4.90;99.90;;;;;;4983122;28;20294;-58
2023/12/13 07:36:33;;;;;;;7.00;4.90;;;4.90;99.90;;;;;;4988592;28;20224;-62
2023/12/13 07:38:59;;;;;;;6.43;4.60;;;4.90;99.90;;;;;;4977151;28;20632;-54
2023/12/13 07:41:26;;;;;;;5.60;3.93;;;4.90;99.90;;;;;;4986187;28;20636;-61
2023/12/13 07:43:53;;;;;;;6.97;5.03;;;4.90;99.90;;;;;;5001740;28;20962;-54
2023/12/13 07:46:20;;;;;;;5.93;4.70;;;4.90;99.90;;;;;;5000660;28;20252;-60
2023/12/13 07:48:51;;;;;;;6.93;5.03;;;4.90;99.90;;;;;;4978006;28;20334;-52
2023/12/13 07:51:18;;;;;;;6.40;5.03;;;4.90;99.90;;;;;;4992147;28;20233;-52
2023/12/13 07:53:45;;;;;;;7.53;4.43;;;4.90;99.90;;;;;;4990156;28;20208;-57
2023/12/13 07:56:11;;;;;;;7.70;4.93;;;4.90;99.90;;;;;;5006274;28;20208;-54
2023/12/13 07:58:38;;;;;;;8.17;4.87;;;4.90;99.90;;;;;;4983788;28;20935;-54
2023/12/13 08:01:06;;;;;;;6.47;4.47;;;4.90;99.90;;;;;;5003762;28;20200;-58
2023/12/13 08:03:32;;;;;;;9.30;5.10;;;5.00;99.90;;;;;;4972556;28;20235;-58
2023/12/13 08:06:01;;;;;;;6.73;5.33;;;4.90;99.90;;;;;;4990829;28;20263;-53
2023/12/13 08:08:29;;;;;;;6.43;5.03;;;4.90;99.90;;;;;;5000295;28;20216;-60
2023/12/13 08:10:55;;;;;;;7.23;5.30;;;4.90;99.90;;;;;;4974493;28;20205;-49
2023/12/13 08:13:22;;;;;;;6.57;5.30;;;4.90;99.90;;;;;;4986559;28;20695;-59
2023/12/13 08:15:49;;;;;;;7.60;5.77;;;4.90;99.90;;;;;;4996387;28;20263;-55
2023/12/13 08:18:16;;;;;;;7.67;5.60;;;4.90;99.90;;;;;;4979700;28;20232;-57
2023/12/13 08:20:43;;;;;;;8.57;5.80;;;5.00;99.90;;;;;;4991664;28;20203;-55
2023/12/13 08:23:12;;;;;;;7.73;5.50;;;5.00;99.90;;;;;;4994466;28;20205;-58
2023/12/13 08:25:39;;;;;;;6.93;5.03;;;5.00;99.90;;;;;;4987952;28;20298;-52
2023/12/13 08:28:06;;;;;;;6.83;5.60;;;5.00;99.90;;;;;;4987895;28;20228;-55
2023/12/13 08:30:32;;;;;;;8.47;5.30;;;5.00;99.90;;;;;;4989283;28;20663;-56
2023/12/13 08:32:59;;;;;;;9.87;5.67;;;5.00;99.90;;;;;;4997983;28;20924;-55
2023/12/13 08:35:27;;;;;;;9.20;5.50;;;5.00;99.90;;;;;;4969263;28;20321;-51
2023/12/13 08:37:54;;;;;;;8.00;5.57;;;5.00;99.90;;;;;;4992013;28;20769;-57
2023/12/13 08:40:22;;;;;;;8.40;5.27;;;4.90;99.90;;;;;;5002392;28;20208;-56
2023/12/13 08:42:49;;;;;;;14.97;6.67;;;5.00;99.90;;;;;;4975829;28;20217;-52
2023/12/13 08:45:17;;;;;;;9.17;5.87;;;5.00;99.90;;;;;;5004213;28;20201;-53
2023/12/13 08:47:43;;;;;;;11.10;6.43;;;4.90;99.90;;;;;;5001061;28;20578;-58
2023/12/13 08:50:10;;;;;;;9.83;6.17;;;4.90;99.90;;;;;;4969006;28;20232;-56
2023/12/13 08:52:37;;;;;;;9.43;6.37;;;4.90;99.90;;;;;;4990733;28;20197;-57
2023/12/13 08:55:08;;;;;;;9.67;5.67;;;5.00;99.90;;;;;;4986969;28;20259;-55
2023/12/13 08:57:36;;;;;;;10.87;6.20;;;5.00;99.90;;;;;;4990066;28;20217;-55
2023/12/13 09:00:03;;;;;;;9.20;6.47;;;5.00;99.90;;;;;;4992840;28;20282;-51
2023/12/13 09:02:30;;;;;;;9.77;6.27;;;5.00;99.90;;;;;;5003642;28;20203;-55
2023/12/13 09:04:56;;;;;;;10.43;5.93;;;5.00;99.90;;;;;;4971442;28;20212;-54
2023/12/13 09:07:23;;;;;;;8.40;5.90;;;5.00;99.90;;;;;;4989799;28;20647;-55
2023/12/13 09:09:50;;;;;;;7.43;5.93;;;5.00;99.90;;;;;;4992445;28;20189;-53
2023/12/13 09:12:17;;;;;;;9.40;6.30;;;5.00;99.90;;;;;;4981514;28;20732;-54
2023/12/13 09:14:45;;;;;;;9.90;6.47;;;5.00;99.90;;;;;;4988869;28;20204;-56
2023/12/13 09:17:12;;;;;;;10.17;6.07;;;5.00;99.90;;;;;;5002212;28;20244;-50
2023/12/13 09:19:39;;;;;;;7.60;5.43;;;5.00;99.90;;;;;;5002129;28;20228;-56
2023/12/13 09:22:06;;;;;;;8.57;6.67;;;5.10;99.90;;;;;;4962845;28;20212;-53
2023/12/13 09:24:33;;;;;;;7.03;5.60;;;5.00;99.90;;;;;;4992611;28;20201;-55
2023/12/13 09:26:59;;;;;;;9.43;5.93;;;5.10;99.90;;;;;;4986067;28;20217;-54
2023/12/13 09:29:26;;;;;;;12.97;6.30;;;5.10;99.90;;;;;;4999806;28;20204;-51
2023/12/13 09:31:54;;;;;;;7.70;5.20;;;5.10;99.90;;;;;;4991139;28;20193;-55
2023/12/13 09:34:22;;;;;;;9.57;5.10;;;5.10;99.90;;;;;;5000599;28;20235;-55
2023/12/13 09:36:49;;;;;;;10.03;5.33;;;5.10;99.90;;;;;;4972716;28;20227;-55
2023/12/13 09:39:16;;;;;;;7.63;5.03;;;5.00;99.90;;;;;;4996551;28;20208;-53
2023/12/13 09:41:53;;;;;;;8.27;5.87;;;5.00;99.90;;;;;;5000689;28;20204;-56
2023/12/13 09:44:24;;;;;;;9.77;5.10;;;5.00;99.90;;;;;;4991936;28;20205;-52
2023/12/13 09:46:53;;;;;;;7.57;5.00;;;5.00;99.90;;;;;;4990838;28;20524;-50
2023/12/13 09:49:21;;;;;;;7.77;4.87;;;5.10;99.90;;;;;;4998035;28;20622;-51
2023/12/13 09:51:50;;;;;;;8.23;5.20;;;5.00;99.90;;;;;;4994519;28;20905;-53
2023/12/13 09:54:17;;;;;;;6.90;4.83;;;5.00;99.90;;;;;;4973149;28;20264;-53
2023/12/13 09:56:44;;;;;;;6.70;4.73;;;5.10;99.90;;;;;;4984434;28;20256;-56
2023/12/13 09:59:12;;;;;;;7.07;5.10;;;5.00;99.90;;;;;;4984285;28;20201;-51
2023/12/13 10:01:38;;;;;;;7.77;5.10;;;5.00;99.90;;;;;;4990994;28;20197;-55
2023/12/13 10:04:06;;;;;;;7.03;4.77;;;5.00;99.90;;;;;;5000492;28;20251;-52
2023/12/13 10:06:33;;;;;;;5.33;4.67;;;5.10;99.90;;;;;;4997225;28;20197;-56
2023/12/13 10:09:01;;;;;;;6.30;4.70;;;5.10;99.90;;;;;;4972202;28;22127;-55
2023/12/13 10:11:28;;;;;;;7.47;4.60;;;5.10;99.90;;;;;;4985003;28;20283;-55
2023/12/13 10:13:56;;;;;;;5.87;4.43;;;5.10;99.90;;;;;;4986609;28;21097;-55
2023/12/13 10:16:27;;;;;;;8.17;4.93;;;5.10;99.90;;;;;;4990766;28;20644;-55
2023/12/13 10:18:54;;;;;;;5.57;4.70;;;5.10;99.90;;;;;;4993196;28;20220;-53
2023/12/13 10:21:22;;;;;;;6.13;4.43;;;5.10;99.90;;;;;;4994814;28;20255;-56
2023/12/13 10:23:49;;;;;;;4.87;4.47;;;5.10;99.90;;;;;;4995991;28;20193;-52
2023/12/13 10:26:16;;;;;;;5.00;4.00;;;5.10;99.90;;;;;;4967252;28;20814;-56
2023/12/13 10:28:43;;;;;;;8.70;4.90;;;5.10;99.90;;;;;;4989137;28;20314;-55
2023/12/13 10:31:11;;;;;;;4.73;4.33;;;5.10;99.90;;;;;;4988048;28;20304;-52
2023/12/13 10:33:38;;;;;;;5.87;4.40;;;5.20;99.90;;;;;;4986275;28;20193;-55
2023/12/13 10:36:05;;;;;;;4.87;4.20;;;5.20;99.90;;;;;;5002447;28;20651;-56
2023/12/13 10:38:34;;;;;;;4.63;4.20;;;5.20;99.90;;;;;;4998890;28;20228;-56
2023/12/13 10:41:01;;;;;;;5.17;3.90;;;5.20;99.90;;;;;;4974612;28;20291;-54
2023/12/13 10:43:31;;;;;;;6.20;4.40;;;5.20;99.90;;;;;;4986766;28;20202;-56
2023/12/13 10:46:01;;;;;;;4.50;4.10;;;5.20;99.90;;;;;;4981424;28;20212;-53
2023/12/13 10:48:33;;;;;;;6.33;4.10;;;5.10;99.90;;;;;;4990994;28;20232;-56
2023/12/13 10:51:02;;;;;;;4.83;4.20;;;5.10;99.90;;;;;;4998191;28;20654;-54
2023/12/13 10:53:32;;;;;;;4.20;3.80;;;5.10;99.90;;;;;;4998201;28;20299;-57
2023/12/13 10:56:01;;;;;;;4.07;3.47;;;5.10;99.90;;;;;;4972085;28;20220;-51
2023/12/13 10:58:28;;;;;;;4.00;3.43;;;5.20;99.90;;;;;;4984482;28;20245;-57
2023/12/13 11:00:57;;;;;;;5.37;3.67;;;5.20;99.90;;;;;;4990595;28;20565;-55
2023/12/13 11:03:34;;;;;;;4.53;3.73;;;5.10;99.90;;;;;;4994525;28;20604;-56
2023/12/13 11:06:04;;;;;;;4.07;3.40;;;5.10;99.90;;;;;;4993617;28;20254;-52
2023/12/13 11:08:39;;;;;;;3.63;3.30;;;5.20;99.90;;;;;;4994235;28;20208;-56
2023/12/13 11:11:09;;;;;;;5.20;3.20;;;5.10;99.90;;;;;;5002032;28;20602;-54
2023/12/13 11:13:40;;;;;;;4.37;2.97;;;5.10;99.90;;;;;;4971469;28;20205;-53
2023/12/13 11:16:18;;;;;;;3.00;2.67;;;5.10;99.90;;;;;;4984041;28;20209;-54
2023/12/13 11:18:46;;;;;;;4.53;2.90;;;5.10;99.90;;;;;;4986579;28;20449;-53
2023/12/13 11:21:26;;;;;;;2.57;2.37;;;5.10;99.90;;;;;;4989926;28;20217;-52
2023/12/13 11:23:53;;;;;;;3.77;2.50;;;5.00;99.90;;;;;;4997210;28;20920;-53
2023/12/13 11:26:23;;;;;;;3.40;2.57;;;5.00;99.90;;;;;;4988775;28;20212;-56
2023/12/13 11:28:51;;;;;;;2.67;2.30;;;5.00;99.90;;;;;;4972120;28;20568;-53
2023/12/13 11:31:21;;;;;;;2.70;2.50;;;5.00;99.90;;;;;;4984550;28;20208;-56
2023/12/13 11:33:49;;;;;;;4.87;2.60;;;5.00;99.90;;;;;;4993344;28;20193;-56
2023/12/13 11:36:18;;;;;;;3.03;2.60;;;5.10;99.90;;;;;;4984110;28;20208;-56
2023/12/13 11:38:46;;;;;;;2.97;2.40;;;5.10;99.90;;;;;;4999776;28;20225;-50
2023/12/13 11:41:12;;;;;;;2.50;2.30;;;5.10;99.90;;;;;;4997423;28;20198;-54
2023/12/13 11:43:41;;;;;;;3.23;2.33;;;5.10;99.90;;;;;;4971534;28;20522;-51
2023/12/13 11:46:09;;;;;;;2.60;2.27;;;5.10;99.90;;;;;;4997379;28;21022;-55
2023/12/13 11:48:36;;;;;;;3.33;2.50;;;5.10;99.90;;;;;;4990714;28;20205;-53
2023/12/13 11:51:03;;;;;;;4.10;2.53;;;5.10;99.90;;;;;;4989789;28;20279;-57
2023/12/13 11:53:30;;;;;;;3.43;2.27;;;5.10;99.90;;;;;;4985037;28;20196;-51
2023/12/13 11:55:58;;;;;;;3.10;2.53;;;5.10;99.90;;;;;;4999839;28;20200;-53
2023/12/13 11:58:29;;;;;;;2.80;2.50;;;5.00;99.90;;;;;;4969083;28;20241;-52
2023/12/13 12:00:59;;;;;;;4.40;2.43;;;5.10;99.90;;;;;;4995673;28;20197;-52
2023/12/13 12:03:27;;;;;;;3.17;2.27;;;5.10;99.90;;;;;;4983510;28;20240;-54
2023/12/13 12:05:54;;;;;;;2.93;2.30;;;5.10;99.90;;;;;;4984269;28;20201;-57
2023/12/13 12:08:24;;;;;;;2.47;2.13;;;5.00;99.90;;;;;;4989785;28;20298;-51
2023/12/13 12:10:52;;;;;;;3.53;2.27;;;5.00;99.90;;;;;;4994710;28;20617;-57
2023/12/13 12:13:19;;;;;;;3.60;2.30;;;5.00;99.90;;;;;;4993088;28;20682;-50
2023/12/13 12:15:46;;;;;;;2.53;2.23;;;5.00;99.90;;;;;;4973670;28;20585;-56
2023/12/13 12:18:14;;;;;;;2.07;1.97;;;5.00;99.90;;;;;;4990380;28;20228;-52
2023/12/13 12:20:41;;;;;;;4.57;2.20;;;5.10;99.90;;;;;;5001596;28;20193;-57
2023/12/13 12:23:09;;;;;;;2.07;1.97;;;5.10;99.90;;;;;;4995811;28;20428;-54
2023/12/13 12:25:36;;;;;;;3.30;2.47;;;5.10;99.90;;;;;;4993684;28;20197;-55
2023/12/13 12:28:08;;;;;;;2.30;2.10;;;5.00;99.90;;;;;;4997266;28;20205;-54
2023/12/13 12:30:35;;;;;;;2.50;1.80;;;5.00;99.90;;;;;;4974147;28;20207;-55
2023/12/13 12:33:01;;;;;;;2.73;2.53;;;5.00;99.90;;;;;;4989045;28;21498;-50
2023/12/13 12:35:30;;;;;;;3.00;1.90;;;5.00;99.90;;;;;;5003597;28;20633;-54
2023/12/13 12:37:57;;;;;;;2.57;2.30;;;5.00;99.90;;;;;;4990758;28;20941;-54
2023/12/13 12:40:23;;;;;;;2.70;2.47;;;5.00;99.90;;;;;;4992902;28;20196;-51
2023/12/13 12:42:50;;;;;;;4.27;2.50;;;5.00;99.90;;;;;;5001114;28;20255;-57
2023/12/13 12:45:18;;;;;;;2.60;1.90;;;5.00;99.90;;;;;;5001284;28;20680;-51
2023/12/13 12:47:44;;;;;;;3.83;2.53;;;4.90;99.90;;;;;;4960959;28;20312;-51
2023/12/13 12:50:11;;;;;;;2.20;2.00;;;5.00;99.90;;;;;;4985493;28;20252;-55
2023/12/13 12:52:41;;;;;;;4.07;2.50;;;5.00;99.90;;;;;;4989189;28;20240;-57
2023/12/13 12:55:09;;;;;;;2.73;1.90;;;5.00;99.90;;;;;;4974815;28;20224;-57
2023/12/13 12:57:36;;;;;;;1.80;1.70;;;4.90;99.90;;;;;;4993805;28;20212;-56